createdAt,value
2019-02-21T00:00:25.904Z,0
2019-02-21T00:01:28.428Z,0
2019-02-21T00:02:30.554Z,0
2019-02-21T00:03:32.745Z,0
2019-02-21T00:04:34.878Z,0
2019-02-21T00:05:37.292Z,0
2019-02-21T00:06:39.449Z,0
2019-02-21T00:07:41.575Z,0
2019-02-21T00:08:44.246Z,0
2019-02-21T00:09:46.371Z,0
2019-02-21T00:10:49.482Z,0
2019-02-21T00:11:51.598Z,0
2019-02-21T00:12:54.005Z,0
2019-02-21T00:13:56.143Z,0
2019-02-21T00:14:58.556Z,0
2019-02-21T00:16:00.684Z,0
2019-02-21T00:17:03.092Z,0
2019-02-21T00:18:05.500Z,0
2019-02-21T00:19:07.625Z,0
2019-02-21T00:20:09.748Z,0
2019-02-21T00:21:12.133Z,0
2019-02-21T00:22:14.261Z,0
2019-02-21T00:23:16.784Z,0
2019-02-21T00:24:18.897Z,0
2019-02-21T00:25:21.042Z,0
2019-02-21T00:26:23.154Z,0
2019-02-21T00:27:25.272Z,0
2019-02-21T00:28:27.672Z,0
2019-02-21T00:29:30.072Z,0
2019-02-21T00:30:37.370Z,0
2019-02-21T00:31:41.526Z,0
2019-02-21T00:32:43.684Z,0
2019-02-21T00:33:46.478Z,0
2019-02-21T00:34:48.865Z,0
2019-02-21T00:35:50.984Z,0
2019-02-21T00:36:53.094Z,0
2019-02-21T00:37:55.516Z,0
2019-02-21T00:38:57.908Z,0
2019-02-21T00:40:00.573Z,0
2019-02-21T00:41:03.077Z,0
2019-02-21T00:42:05.178Z,0
2019-02-21T00:43:07.586Z,0
2019-02-21T00:44:10.098Z,0
2019-02-21T00:45:12.216Z,0
2019-02-21T00:46:14.630Z,0
2019-02-21T00:47:16.756Z,0
2019-02-21T00:48:18.948Z,0
2019-02-21T00:49:21.414Z,0
2019-02-21T00:50:23.845Z,0
2019-02-21T00:51:26.652Z,0
2019-02-21T00:52:31.819Z,0
2019-02-21T00:53:34.351Z,0
2019-02-21T00:54:36.744Z,0
2019-02-21T00:55:39.265Z,0
2019-02-21T00:56:41.779Z,0
2019-02-21T00:57:44.193Z,0
2019-02-21T00:58:46.331Z,0
2019-02-21T00:59:51.145Z,0
2019-02-21T01:00:53.287Z,0
2019-02-21T01:01:55.762Z,0
2019-02-21T01:02:58.292Z,0
2019-02-21T01:04:00.419Z,0
2019-02-21T01:05:02.547Z,0
2019-02-21T01:06:04.789Z,0
2019-02-21T01:07:06.929Z,0
2019-02-21T01:08:09.436Z,0
2019-02-21T01:09:11.625Z,0
2019-02-21T01:10:13.739Z,0
2019-02-21T01:11:16.152Z,0
2019-02-21T01:12:18.260Z,0
2019-02-21T01:13:20.385Z,0
2019-02-21T01:14:22.810Z,0
2019-02-21T01:15:24.915Z,0
2019-02-21T01:16:27.322Z,0
2019-02-21T01:17:29.731Z,0
2019-02-21T01:18:31.842Z,0
2019-02-21T01:19:33.965Z,0
2019-02-21T01:20:36.093Z,0
2019-02-21T01:21:38.220Z,0
2019-02-21T01:22:41.342Z,0
2019-02-21T01:23:43.467Z,0
2019-02-21T01:24:46.263Z,0
2019-02-21T01:25:48.672Z,0
2019-02-21T01:26:51.090Z,0
2019-02-21T01:27:53.187Z,0
2019-02-21T01:28:55.596Z,0
2019-02-21T01:29:58.005Z,0
2019-02-21T01:31:00.694Z,0
2019-02-21T01:32:03.238Z,0
2019-02-21T01:33:05.420Z,0
2019-02-21T01:34:07.834Z,0
2019-02-21T01:35:10.244Z,0
2019-02-21T01:36:12.376Z,0
2019-02-21T01:37:14.480Z,0
2019-02-21T01:38:16.600Z,0
2019-02-21T01:39:18.728Z,0
2019-02-21T01:40:21.125Z,0
2019-02-21T01:41:23.652Z,0
2019-02-21T01:42:25.794Z,0
2019-02-21T01:43:27.917Z,0
2019-02-21T01:44:30.301Z,0
2019-02-21T01:45:32.421Z,0
2019-02-21T01:46:34.558Z,0
2019-02-21T01:47:36.980Z,0
2019-02-21T01:48:39.186Z,0
2019-02-21T01:49:42.298Z,0
2019-02-21T01:50:44.430Z,0
2019-02-21T01:51:46.546Z,0
2019-02-21T01:52:49.056Z,0
2019-02-21T01:53:51.188Z,0
2019-02-21T01:54:53.862Z,0
2019-02-21T01:55:56.292Z,0
2019-02-21T01:56:58.440Z,0
2019-02-21T01:58:00.545Z,0
2019-02-21T01:59:02.663Z,0
2019-02-21T02:00:05.100Z,0
2019-02-21T02:01:10.608Z,0
2019-02-21T02:02:13.152Z,0
2019-02-21T02:03:15.429Z,0
2019-02-21T02:04:17.664Z,0
2019-02-21T02:05:20.163Z,0
2019-02-21T02:06:22.276Z,0
2019-02-21T02:07:24.690Z,0
2019-02-21T02:08:27.232Z,0
2019-02-21T02:09:29.813Z,0
2019-02-21T02:10:31.930Z,0
2019-02-21T02:11:34.340Z,0
2019-02-21T02:12:37.190Z,0
2019-02-21T02:13:39.578Z,0
2019-02-21T02:14:41.742Z,0
2019-02-21T02:15:44.166Z,0
2019-02-21T02:16:46.581Z,0
2019-02-21T02:17:48.685Z,0
2019-02-21T02:18:50.811Z,0
2019-02-21T02:19:53.211Z,0
2019-02-21T02:20:55.627Z,0
2019-02-21T02:21:57.778Z,0
2019-02-21T02:22:59.888Z,0
2019-02-21T02:24:02.303Z,0
2019-02-21T02:25:04.444Z,0
2019-02-21T02:26:06.953Z,0
2019-02-21T02:27:09.059Z,0
2019-02-21T02:28:11.470Z,0
2019-02-21T02:29:13.862Z,0
2019-02-21T02:30:16.017Z,0
2019-02-21T02:31:25.054Z,0
2019-02-21T02:32:27.565Z,0
2019-02-21T02:33:30.167Z,0
2019-02-21T02:34:32.312Z,0
2019-02-21T02:35:34.720Z,0
2019-02-21T02:36:37.261Z,0
2019-02-21T02:37:39.687Z,0
2019-02-21T02:38:42.175Z,0
2019-02-21T02:39:44.978Z,0
2019-02-21T02:40:47.101Z,0
2019-02-21T02:41:49.825Z,0
2019-02-21T02:42:52.528Z,0
2019-02-21T02:43:54.672Z,0
2019-02-21T02:44:56.813Z,0
2019-02-21T02:45:59.343Z,0
2019-02-21T02:47:01.523Z,0
2019-02-21T02:48:04.669Z,0
2019-02-21T02:49:07.185Z,0
2019-02-21T02:50:09.594Z,0
2019-02-21T02:51:12.046Z,0
2019-02-21T02:52:14.594Z,0
2019-02-21T02:53:17.434Z,0
2019-02-21T02:54:19.853Z,0
2019-02-21T02:55:21.989Z,0
2019-02-21T02:56:24.809Z,0
2019-02-21T02:57:27.923Z,0
2019-02-21T02:58:30.054Z,0
2019-02-21T02:59:42.476Z,0
2019-02-21T03:00:44.643Z,0
2019-02-21T03:01:47.099Z,0
2019-02-21T03:02:49.887Z,0
2019-02-21T03:03:52.411Z,0
2019-02-21T03:04:54.883Z,0
2019-02-21T03:05:57.295Z,0
2019-02-21T03:06:59.788Z,0
2019-02-21T03:08:02.232Z,0
2019-02-21T03:09:04.666Z,0
2019-02-21T03:10:07.167Z,0
2019-02-21T03:11:09.382Z,0
2019-02-21T03:12:11.514Z,0
2019-02-21T03:13:14.203Z,0
2019-02-21T03:14:16.335Z,0
2019-02-21T03:15:18.857Z,0
2019-02-21T03:16:21.391Z,0
2019-02-21T03:17:23.565Z,0
2019-02-21T03:18:26.016Z,0
2019-02-21T03:19:28.573Z,0
2019-02-21T03:20:30.715Z,0
2019-02-21T03:21:33.507Z,0
2019-02-21T03:22:36.496Z,0
2019-02-21T03:23:38.760Z,0
2019-02-21T03:24:41.777Z,0
2019-02-21T03:25:44.167Z,0
2019-02-21T03:26:46.286Z,0
2019-02-21T03:27:48.406Z,0
2019-02-21T03:28:50.797Z,0
2019-02-21T03:29:52.923Z,0
2019-02-21T03:30:55.399Z,0
2019-02-21T03:31:57.914Z,0
2019-02-21T03:33:00.825Z,0
2019-02-21T03:34:03.548Z,0
2019-02-21T03:35:06.324Z,0
2019-02-21T03:36:09.187Z,0
2019-02-21T03:37:11.418Z,0
2019-02-21T03:38:13.862Z,0
2019-02-21T03:39:16.806Z,0
2019-02-21T03:40:19.237Z,0
2019-02-21T03:41:21.379Z,0
2019-02-21T03:42:23.795Z,0
2019-02-21T03:43:26.476Z,0
2019-02-21T03:44:30.023Z,0
2019-02-21T03:45:32.182Z,0
2019-02-21T03:46:34.630Z,0
2019-02-21T03:47:37.034Z,0
2019-02-21T03:48:39.457Z,0
2019-02-21T03:49:41.587Z,0
2019-02-21T03:50:44.219Z,0
2019-02-21T03:51:46.343Z,0
2019-02-21T03:52:48.463Z,0
2019-02-21T03:53:50.612Z,0
2019-02-21T03:54:53.061Z,0
2019-02-21T03:55:55.611Z,0
2019-02-21T03:56:58.027Z,0
2019-02-21T03:58:00.164Z,0
2019-02-21T03:59:02.588Z,0
2019-02-21T04:00:05.686Z,0
2019-02-21T04:01:08.137Z,0
2019-02-21T04:02:10.268Z,0
2019-02-21T04:03:12.397Z,0
2019-02-21T04:04:14.536Z,0
2019-02-21T04:05:17.311Z,0
2019-02-21T04:06:19.736Z,0
2019-02-21T04:07:23.554Z,0
2019-02-21T04:08:25.678Z,0
2019-02-21T04:09:27.853Z,0
2019-02-21T04:10:30.046Z,0
2019-02-21T04:11:32.166Z,0
2019-02-21T04:12:34.579Z,0
2019-02-21T04:13:37.001Z,0
2019-02-21T04:14:39.104Z,0
2019-02-21T04:15:41.220Z,0
2019-02-21T04:16:44.037Z,0
2019-02-21T04:17:46.557Z,0
2019-02-21T04:18:48.967Z,0
2019-02-21T04:19:51.108Z,0
2019-02-21T04:20:53.537Z,0
2019-02-21T04:21:55.745Z,0
2019-02-21T04:22:58.250Z,0
2019-02-21T04:24:00.777Z,0
2019-02-21T04:25:02.896Z,0
2019-02-21T04:26:05.015Z,0
2019-02-21T04:27:07.165Z,0
2019-02-21T04:28:10.156Z,0
2019-02-21T04:29:12.559Z,0
2019-02-21T04:30:14.680Z,0
2019-02-21T04:31:17.258Z,0
2019-02-21T04:32:19.690Z,0
2019-02-21T04:33:22.134Z,0
2019-02-21T04:34:24.562Z,0
2019-02-21T04:35:27.074Z,0
2019-02-21T04:36:29.249Z,0
2019-02-21T04:37:31.414Z,0
2019-02-21T04:38:33.601Z,0
2019-02-21T04:39:35.735Z,0
2019-02-21T04:40:38.160Z,0
2019-02-21T04:41:40.286Z,0
2019-02-21T04:42:42.416Z,0
2019-02-21T04:43:44.538Z,0
2019-02-21T04:44:46.671Z,0
2019-02-21T04:45:49.098Z,0
2019-02-21T04:46:51.661Z,0
2019-02-21T04:47:54.082Z,0
2019-02-21T04:48:56.629Z,0
2019-02-21T04:49:59.357Z,0
2019-02-21T04:51:02.048Z,0
2019-02-21T04:52:04.492Z,0
2019-02-21T04:53:06.618Z,0
2019-02-21T04:54:09.318Z,0
2019-02-21T04:55:11.451Z,0
2019-02-21T04:56:13.620Z,0
2019-02-21T04:57:16.039Z,0
2019-02-21T04:58:18.590Z,0
2019-02-21T04:59:21.031Z,0
2019-02-21T05:00:23.148Z,0
2019-02-21T05:01:25.277Z,0
2019-02-21T05:02:31.021Z,0
2019-02-21T05:03:33.151Z,0
2019-02-21T05:04:35.654Z,0
2019-02-21T05:05:38.172Z,0
2019-02-21T05:06:40.579Z,0
2019-02-21T05:07:43.370Z,0
2019-02-21T05:08:45.566Z,0
2019-02-21T05:10:00.142Z,0
2019-02-21T05:11:02.900Z,0
2019-02-21T05:12:05.652Z,0
2019-02-21T05:13:07.798Z,0
2019-02-21T05:14:09.907Z,0
2019-02-21T05:15:15.780Z,0
2019-02-21T05:16:17.909Z,0
2019-02-21T05:17:20.412Z,0
2019-02-21T05:18:23.458Z,0
2019-02-21T05:19:25.877Z,0
2019-02-21T05:20:28.045Z,0
2019-02-21T05:21:30.178Z,0
2019-02-21T05:22:32.350Z,0
2019-02-21T05:23:37.487Z,0
2019-02-21T05:24:39.666Z,0
2019-02-21T05:25:42.073Z,0
2019-02-21T05:26:44.213Z,0
2019-02-21T05:27:46.328Z,0
2019-02-21T05:28:49.076Z,0
2019-02-21T05:29:51.511Z,0
2019-02-21T05:30:54.232Z,0
2019-02-21T05:31:56.517Z,0
2019-02-21T05:32:58.678Z,0
2019-02-21T05:34:01.200Z,0
2019-02-21T05:35:03.674Z,0
2019-02-21T05:36:06.184Z,0
2019-02-21T05:37:08.704Z,0
2019-02-21T05:38:11.518Z,0
2019-02-21T05:39:14.007Z,0
2019-02-21T05:40:16.485Z,0
2019-02-21T05:41:19.559Z,0
2019-02-21T05:42:21.699Z,0
2019-02-21T05:43:24.260Z,0
2019-02-21T05:44:26.687Z,0
2019-02-21T05:45:28.857Z,0
2019-02-21T05:46:31.016Z,0
2019-02-21T05:47:33.417Z,0
2019-02-21T05:48:35.845Z,0
2019-02-21T05:49:37.962Z,0
2019-02-21T05:50:40.493Z,0
2019-02-21T05:51:42.727Z,0
2019-02-21T05:52:44.886Z,0
2019-02-21T05:53:47.329Z,0
2019-02-21T05:54:49.875Z,0
2019-02-21T05:55:52.385Z,0
2019-02-21T05:56:55.200Z,0
2019-02-21T05:57:57.337Z,0
2019-02-21T05:58:59.502Z,0
2019-02-21T06:00:01.717Z,0
2019-02-21T06:01:04.250Z,0
2019-02-21T06:02:06.710Z,0
2019-02-21T06:03:08.820Z,0
2019-02-21T06:04:11.241Z,0
2019-02-21T06:05:13.388Z,0
2019-02-21T06:06:18.843Z,0
2019-02-21T06:07:21.627Z,0
2019-02-21T06:08:23.751Z,0
2019-02-21T06:09:25.871Z,0
2019-02-21T06:10:28.269Z,0
2019-02-21T06:11:34.646Z,0
2019-02-21T06:12:37.337Z,0
2019-02-21T06:13:39.463Z,0
2019-02-21T06:14:42.209Z,0
2019-02-21T06:15:44.323Z,0
2019-02-21T06:16:46.452Z,0
2019-02-21T06:17:48.575Z,0
2019-02-21T06:18:50.694Z,0
2019-02-21T06:19:53.141Z,0
2019-02-21T06:20:58.825Z,0
2019-02-21T06:22:12.376Z,0
2019-02-21T06:23:14.496Z,0
2019-02-21T06:24:16.948Z,0
2019-02-21T06:25:19.099Z,0
2019-02-21T06:26:22.092Z,0
2019-02-21T06:27:24.514Z,0
2019-02-21T06:28:26.617Z,0
2019-02-21T06:29:28.759Z,1
2019-02-21T06:30:30.890Z,1
2019-02-21T06:31:33.019Z,1
2019-02-21T06:32:35.154Z,1
2019-02-21T06:33:37.657Z,1
2019-02-21T06:34:39.796Z,1
2019-02-21T06:35:42.330Z,1
2019-02-21T06:36:44.470Z,1
2019-02-21T06:37:46.592Z,2
2019-02-21T06:38:49.094Z,2
2019-02-21T06:39:51.232Z,2
2019-02-21T06:40:53.351Z,2
2019-02-21T06:42:01.956Z,2
2019-02-21T06:43:04.388Z,2
2019-02-21T06:44:06.515Z,2
2019-02-21T06:45:08.923Z,2
2019-02-21T06:46:14.449Z,3
2019-02-21T06:47:16.596Z,3
2019-02-21T06:48:19.290Z,3
2019-02-21T06:49:33.658Z,3
2019-02-21T06:50:35.767Z,3
2019-02-21T06:51:37.879Z,4
2019-02-21T06:52:42.320Z,4
2019-02-21T06:53:44.443Z,4
2019-02-21T06:54:46.862Z,4
2019-02-21T06:55:48.981Z,5
2019-02-21T06:56:51.103Z,5
2019-02-21T06:57:53.310Z,5
2019-02-21T06:58:55.415Z,5
2019-02-21T06:59:57.553Z,5
2019-02-21T07:01:00.070Z,5
2019-02-21T07:02:02.238Z,6
2019-02-21T07:03:16.562Z,6
2019-02-21T07:04:18.985Z,6
2019-02-21T07:05:21.093Z,6
2019-02-21T07:06:33.716Z,7
2019-02-21T07:07:36.150Z,7
2019-02-21T07:08:40.966Z,8
2019-02-21T07:09:43.083Z,9
2019-02-21T07:10:45.218Z,9
2019-02-21T07:11:47.475Z,10
2019-02-21T07:12:49.598Z,11
2019-02-21T07:13:51.726Z,12
2019-02-21T07:14:53.836Z,13
2019-02-21T07:15:58.854Z,13
2019-02-21T07:17:01.299Z,14
2019-02-21T07:18:03.441Z,15
2019-02-21T07:19:05.859Z,16
2019-02-21T07:20:08.315Z,16
2019-02-21T07:21:10.443Z,16
2019-02-21T07:22:23.926Z,16
2019-02-21T07:23:26.466Z,17
2019-02-21T07:24:28.653Z,17
2019-02-21T07:25:33.538Z,17
2019-02-21T07:26:35.955Z,16
2019-02-21T07:27:38.965Z,16
2019-02-21T07:28:43.062Z,16
2019-02-21T07:29:45.185Z,17
2019-02-21T07:30:47.581Z,16
2019-02-21T07:31:51.110Z,19
2019-02-21T07:32:53.601Z,18
2019-02-21T07:33:56.330Z,19
2019-02-21T07:34:58.740Z,19
2019-02-21T07:36:01.171Z,21
2019-02-21T07:37:03.301Z,22
2019-02-21T07:38:06.770Z,23
2019-02-21T07:39:22.029Z,24
2019-02-21T07:40:24.192Z,26
2019-02-21T07:41:26.324Z,26
2019-02-21T07:42:28.453Z,26
2019-02-21T07:43:30.608Z,27
2019-02-21T07:44:32.721Z,28
2019-02-21T07:45:37.796Z,28
2019-02-21T07:46:39.925Z,28
2019-02-21T07:47:42.434Z,32
2019-02-21T07:48:44.568Z,32
2019-02-21T07:49:46.970Z,32
2019-02-21T07:50:49.088Z,49
2019-02-21T07:51:51.203Z,34
2019-02-21T07:53:04.168Z,27
2019-02-21T07:54:06.633Z,24
2019-02-21T07:55:12.412Z,23
2019-02-21T07:56:14.856Z,23
2019-02-21T07:57:16.988Z,22
2019-02-21T07:58:19.128Z,21
2019-02-21T07:59:21.256Z,19
2019-02-21T08:00:23.379Z,18
2019-02-21T08:01:25.809Z,18
2019-02-21T08:02:27.951Z,18
2019-02-21T08:03:49.576Z,20
2019-02-21T08:04:51.710Z,23
2019-02-21T08:05:54.118Z,25
2019-02-21T08:06:57.441Z,29
2019-02-21T08:07:59.838Z,36
2019-02-21T08:09:02.350Z,60
2019-02-21T08:10:04.494Z,44
2019-02-21T08:11:08.647Z,43
2019-02-21T08:12:11.458Z,43
2019-02-21T08:13:14.002Z,42
2019-02-21T08:14:17.576Z,42
2019-02-21T08:15:20.350Z,45
2019-02-21T08:16:22.476Z,48
2019-02-21T08:17:24.623Z,49
2019-02-21T08:18:26.725Z,58
2019-02-21T08:19:29.630Z,61
2019-02-21T08:20:42.161Z,81
2019-02-21T08:21:45.458Z,49
2019-02-21T08:22:48.327Z,44
2019-02-21T08:23:52.366Z,44
2019-02-21T08:24:57.160Z,44
2019-02-21T08:25:59.302Z,48
2019-02-21T08:27:01.471Z,46
2019-02-21T08:28:03.877Z,46
2019-02-21T08:29:07.540Z,48
2019-02-21T08:30:09.963Z,71
2019-02-21T08:31:12.685Z,76
2019-02-21T08:32:14.933Z,71
2019-02-21T08:33:17.054Z,77
2019-02-21T08:34:19.767Z,78
2019-02-21T08:35:22.286Z,100
2019-02-21T08:36:24.418Z,148
2019-02-21T08:37:27.499Z,146
2019-02-21T08:38:29.636Z,92
2019-02-21T08:39:31.761Z,66
2019-02-21T08:40:33.872Z,59
2019-02-21T08:41:36.303Z,55
2019-02-21T08:42:39.137Z,59
2019-02-21T08:43:41.258Z,65
2019-02-21T08:44:43.703Z,83
2019-02-21T08:45:46.141Z,65
2019-02-21T08:46:48.282Z,62
2019-02-21T08:47:50.692Z,58
2019-02-21T08:48:53.409Z,57
2019-02-21T08:49:55.528Z,59
2019-02-21T08:50:57.658Z,62
2019-02-21T08:51:59.762Z,62
2019-02-21T08:53:02.497Z,62
2019-02-21T08:54:07.853Z,62
2019-02-21T08:55:09.965Z,59
2019-02-21T08:56:12.106Z,53
2019-02-21T08:57:14.215Z,49
2019-02-21T08:58:16.351Z,47
2019-02-21T08:59:18.471Z,49
2019-02-21T09:00:20.611Z,51
2019-02-21T09:01:22.731Z,48
2019-02-21T09:02:24.853Z,42
2019-02-21T09:03:26.989Z,35
2019-02-21T09:04:29.482Z,30
2019-02-21T09:05:32.035Z,29
2019-02-21T09:06:34.196Z,33
2019-02-21T09:07:36.315Z,40
2019-02-21T09:08:39.026Z,47
2019-02-21T09:09:41.231Z,51
2019-02-21T09:10:44.343Z,54
2019-02-21T09:11:46.519Z,55
2019-02-21T09:12:50.587Z,53
2019-02-21T09:13:52.700Z,50
2019-02-21T09:14:54.841Z,48
2019-02-21T09:15:57.404Z,46
2019-02-21T09:16:59.519Z,47
2019-02-21T09:18:01.666Z,56
2019-02-21T09:19:04.528Z,104
2019-02-21T09:20:06.696Z,131
2019-02-21T09:21:08.848Z,222
2019-02-21T09:22:10.963Z,219
2019-02-21T09:23:16.263Z,176
2019-02-21T09:24:43.926Z,185
2019-02-21T09:25:46.454Z,114
2019-02-21T09:26:48.976Z,103
2019-02-21T09:27:51.105Z,98
2019-02-21T09:28:53.221Z,72
2019-02-21T09:29:55.366Z,70
2019-02-21T09:30:58.063Z,74
2019-02-21T09:32:01.044Z,84
2019-02-21T09:33:03.468Z,79
2019-02-21T09:34:05.933Z,84
2019-02-21T09:35:08.051Z,94
2019-02-21T09:36:10.186Z,107
2019-02-21T09:37:12.607Z,160
2019-02-21T09:38:14.725Z,151
2019-02-21T09:39:17.797Z,107
2019-02-21T09:40:19.929Z,118
2019-02-21T09:41:22.048Z,73
2019-02-21T09:42:24.180Z,73
2019-02-21T09:43:26.635Z,68
2019-02-21T09:44:29.442Z,63
2019-02-21T09:45:34.157Z,63
2019-02-21T09:46:36.682Z,66
2019-02-21T09:47:38.793Z,69
2019-02-21T09:48:41.609Z,66
2019-02-21T09:49:44.076Z,63
2019-02-21T09:50:46.459Z,67
2019-02-21T09:51:48.887Z,89
2019-02-21T09:52:51.311Z,65
2019-02-21T09:53:53.423Z,58
2019-02-21T09:54:55.570Z,59
2019-02-21T09:55:58.295Z,75
2019-02-21T09:57:00.443Z,183
2019-02-21T09:58:02.641Z,77
2019-02-21T09:59:05.071Z,112
2019-02-21T10:00:07.315Z,201
2019-02-21T10:01:09.439Z,215
2019-02-21T10:02:11.568Z,106
2019-02-21T10:03:13.681Z,87
2019-02-21T10:04:15.827Z,91
2019-02-21T10:05:17.970Z,101
2019-02-21T10:06:20.115Z,94
2019-02-21T10:07:22.223Z,97
2019-02-21T10:08:24.692Z,170
2019-02-21T10:09:26.899Z,110
2019-02-21T10:10:29.045Z,132
2019-02-21T10:11:31.252Z,214
2019-02-21T10:12:33.652Z,198
2019-02-21T10:13:36.585Z,195
2019-02-21T10:14:38.718Z,196
2019-02-21T10:15:40.845Z,210
2019-02-21T10:16:43.257Z,207
2019-02-21T10:17:45.790Z,113
2019-02-21T10:18:48.216Z,212
2019-02-21T10:19:50.735Z,210
2019-02-21T10:20:52.867Z,155
2019-02-21T10:21:55.047Z,210
2019-02-21T10:22:57.166Z,216
2019-02-21T10:23:59.311Z,156
2019-02-21T10:25:01.948Z,219
2019-02-21T10:26:04.977Z,220
2019-02-21T10:27:07.113Z,226
2019-02-21T10:28:09.238Z,123
2019-02-21T10:29:12.046Z,217
2019-02-21T10:30:15.268Z,229
2019-02-21T10:31:17.978Z,199
2019-02-21T10:32:20.083Z,227
2019-02-21T10:33:25.568Z,263
2019-02-21T10:34:27.711Z,239
2019-02-21T10:35:29.832Z,254
2019-02-21T10:36:32.436Z,253
2019-02-21T10:37:34.572Z,235
2019-02-21T10:38:37.280Z,242
2019-02-21T10:39:42.113Z,254
2019-02-21T10:40:44.266Z,294
2019-02-21T10:41:46.394Z,192
2019-02-21T10:42:48.808Z,144
2019-02-21T10:43:50.923Z,159
2019-02-21T10:44:53.062Z,111
2019-02-21T10:45:55.180Z,100
2019-02-21T10:46:57.695Z,92
2019-02-21T10:47:59.888Z,88
2019-02-21T10:49:02.306Z,87
2019-02-21T10:50:05.407Z,86
2019-02-21T10:51:07.546Z,85
2019-02-21T10:52:10.238Z,83
2019-02-21T10:53:12.390Z,79
2019-02-21T10:54:14.815Z,82
2019-02-21T10:55:16.948Z,87
2019-02-21T10:56:19.071Z,86
2019-02-21T10:57:21.534Z,92
2019-02-21T10:58:24.091Z,104
2019-02-21T10:59:26.233Z,114
2019-02-21T11:00:28.690Z,106
2019-02-21T11:01:31.373Z,103
2019-02-21T11:02:33.555Z,95
2019-02-21T11:03:35.686Z,93
2019-02-21T11:04:38.224Z,90
2019-02-21T11:05:40.347Z,92
2019-02-21T11:06:42.773Z,97
2019-02-21T11:07:45.222Z,105
2019-02-21T11:08:47.373Z,101
2019-02-21T11:09:49.839Z,99
2019-02-21T11:10:51.961Z,90
2019-02-21T11:11:54.106Z,88
2019-02-21T11:12:56.245Z,88
2019-02-21T11:13:58.674Z,89
2019-02-21T11:15:01.056Z,85
2019-02-21T11:16:03.187Z,80
2019-02-21T11:17:05.710Z,75
2019-02-21T11:18:08.120Z,76
2019-02-21T11:19:10.245Z,82
2019-02-21T11:20:12.371Z,91
2019-02-21T11:21:14.517Z,93
2019-02-21T11:22:16.640Z,86
2019-02-21T11:23:19.056Z,81
2019-02-21T11:24:21.581Z,70
2019-02-21T11:25:24.349Z,68
2019-02-21T11:26:26.489Z,69
2019-02-21T11:27:28.627Z,65
2019-02-21T11:28:30.755Z,65
2019-02-21T11:29:33.152Z,71
2019-02-21T11:30:35.284Z,81
2019-02-21T11:31:37.403Z,95
2019-02-21T11:32:39.531Z,96
2019-02-21T11:33:41.977Z,96
2019-02-21T11:34:44.085Z,111
2019-02-21T11:35:46.216Z,115
2019-02-21T11:36:48.342Z,126
2019-02-21T11:37:50.486Z,160
2019-02-21T11:38:52.693Z,121
2019-02-21T11:39:54.897Z,116
2019-02-21T11:40:57.018Z,95
2019-02-21T11:41:59.129Z,102
2019-02-21T11:43:03.939Z,127
2019-02-21T11:44:06.067Z,126
2019-02-21T11:45:08.637Z,124
2019-02-21T11:46:10.840Z,82
2019-02-21T11:47:12.989Z,70
2019-02-21T11:48:15.410Z,63
2019-02-21T11:49:17.547Z,59
2019-02-21T11:50:20.008Z,53
2019-02-21T11:51:22.509Z,46
2019-02-21T11:52:25.111Z,52
2019-02-21T11:53:27.534Z,49
2019-02-21T11:54:29.649Z,39
2019-02-21T11:55:31.776Z,34
2019-02-21T11:56:33.911Z,35
2019-02-21T11:57:36.034Z,32
2019-02-21T11:58:38.151Z,39
2019-02-21T11:59:40.573Z,42
2019-02-21T12:00:42.724Z,43
2019-02-21T12:01:44.941Z,36
2019-02-21T12:02:47.053Z,31
2019-02-21T12:03:49.244Z,36
2019-02-21T12:04:51.368Z,51
2019-02-21T12:05:53.778Z,58
2019-02-21T12:06:56.477Z,58
2019-02-21T12:07:58.589Z,50
2019-02-21T12:09:01.378Z,57
2019-02-21T12:10:03.511Z,66
2019-02-21T12:11:06.642Z,57
2019-02-21T12:12:11.698Z,50
2019-02-21T12:13:14.233Z,43
2019-02-21T12:14:16.360Z,42
2019-02-21T12:15:18.479Z,36
2019-02-21T12:16:20.630Z,41
2019-02-21T12:17:22.747Z,43
2019-02-21T12:18:24.880Z,44
2019-02-21T12:19:27.002Z,38
2019-02-21T12:20:29.147Z,38
2019-02-21T12:21:31.260Z,44
2019-02-21T12:22:33.392Z,46
2019-02-21T12:23:35.533Z,52
2019-02-21T12:24:37.642Z,54
2019-02-21T12:25:39.779Z,55
2019-02-21T12:26:41.904Z,57
2019-02-21T12:27:44.015Z,60
2019-02-21T12:28:46.151Z,49
2019-02-21T12:29:48.583Z,45
2019-02-21T12:30:50.702Z,49
2019-02-21T12:31:53.229Z,48
2019-02-21T12:32:55.652Z,43
2019-02-21T12:33:57.766Z,50
2019-02-21T12:35:00.325Z,54
2019-02-21T12:36:02.473Z,50
2019-02-21T12:37:05.001Z,47
2019-02-21T12:38:07.143Z,47
2019-02-21T12:39:09.563Z,49
2019-02-21T12:40:11.673Z,47
2019-02-21T12:41:13.809Z,48
2019-02-21T12:42:15.933Z,46
2019-02-21T12:43:18.059Z,45
2019-02-21T12:44:20.180Z,40
2019-02-21T12:45:22.985Z,39
2019-02-21T12:46:25.101Z,40
2019-02-21T12:47:27.231Z,38
2019-02-21T12:48:29.375Z,42
2019-02-21T12:49:34.043Z,42
2019-02-21T12:50:46.246Z,41
2019-02-21T12:51:49.041Z,45
2019-02-21T12:52:51.166Z,47
2019-02-21T12:53:53.284Z,50
2019-02-21T12:54:55.733Z,48
2019-02-21T12:55:57.849Z,41
2019-02-21T12:57:00.360Z,43
2019-02-21T12:58:02.811Z,34
2019-02-21T12:59:04.930Z,38
2019-02-21T13:00:07.642Z,31
2019-02-21T13:01:09.781Z,29
2019-02-21T13:02:11.901Z,29
2019-02-21T13:03:14.588Z,30
2019-02-21T13:04:16.716Z,24
2019-02-21T13:05:18.842Z,22
2019-02-21T13:06:20.970Z,28
2019-02-21T13:07:23.397Z,29
2019-02-21T13:08:25.513Z,23
2019-02-21T13:09:27.996Z,20
2019-02-21T13:10:30.135Z,20
2019-02-21T13:11:32.264Z,23
2019-02-21T13:12:34.398Z,21
2019-02-21T13:13:36.517Z,20
2019-02-21T13:14:38.656Z,17
2019-02-21T13:15:40.781Z,15
2019-02-21T13:16:43.201Z,13
2019-02-21T13:17:45.323Z,16
2019-02-21T13:18:48.061Z,18
2019-02-21T13:19:50.176Z,15
2019-02-21T13:20:52.593Z,15
2019-02-21T13:21:55.313Z,17
2019-02-21T13:22:57.443Z,15
2019-02-21T13:23:59.588Z,14
2019-02-21T13:25:01.760Z,19
2019-02-21T13:26:03.907Z,23
2019-02-21T13:27:06.344Z,23
2019-02-21T13:28:08.491Z,21
2019-02-21T13:29:10.617Z,20
2019-02-21T13:30:13.050Z,22
2019-02-21T13:31:16.053Z,23
2019-02-21T13:32:18.624Z,24
2019-02-21T13:33:21.224Z,24
2019-02-21T13:34:24.602Z,22
2019-02-21T13:35:29.942Z,19
2019-02-21T13:36:35.205Z,19
2019-02-21T13:37:37.348Z,18
2019-02-21T13:38:40.140Z,16
2019-02-21T13:39:42.610Z,15
2019-02-21T13:40:45.054Z,14
2019-02-21T13:41:48.074Z,13
2019-02-21T13:42:50.562Z,13
2019-02-21T13:43:52.991Z,13
2019-02-21T13:44:55.126Z,13
2019-02-21T13:45:57.522Z,14
2019-02-21T13:47:00.567Z,14
2019-02-21T13:48:02.676Z,13
2019-02-21T13:49:04.831Z,15
2019-02-21T13:50:06.952Z,15
2019-02-21T13:51:09.507Z,16
2019-02-21T13:52:11.932Z,15
2019-02-21T13:53:14.049Z,18
2019-02-21T13:54:16.177Z,15
2019-02-21T13:55:18.934Z,17
2019-02-21T13:56:21.642Z,22
2019-02-21T13:57:23.779Z,20
2019-02-21T13:58:26.227Z,26
2019-02-21T13:59:28.379Z,23
2019-02-21T14:00:30.489Z,18
2019-02-21T14:01:32.634Z,17
2019-02-21T14:02:35.036Z,14
2019-02-21T14:03:37.163Z,17
2019-02-21T14:04:39.314Z,18
2019-02-21T14:05:41.431Z,16
2019-02-21T14:06:43.935Z,14
2019-02-21T14:07:46.390Z,14
2019-02-21T14:08:49.499Z,15
2019-02-21T14:09:51.893Z,16
2019-02-21T14:10:54.041Z,16
2019-02-21T14:11:56.437Z,14
2019-02-21T14:12:58.562Z,17
2019-02-21T14:14:01.082Z,16
2019-02-21T14:15:03.222Z,14
2019-02-21T14:16:06.000Z,14
2019-02-21T14:17:08.165Z,15
2019-02-21T14:18:10.559Z,14
2019-02-21T14:19:12.680Z,13
2019-02-21T14:20:15.405Z,14
2019-02-21T14:21:17.854Z,14
2019-02-21T14:22:19.991Z,12
2019-02-21T14:23:22.399Z,12
2019-02-21T14:24:38.098Z,12
2019-02-21T14:25:42.505Z,13
2019-02-21T14:26:44.638Z,13
2019-02-21T14:27:47.249Z,12
2019-02-21T14:28:49.456Z,12
2019-02-21T14:29:51.606Z,13
2019-02-21T14:30:54.031Z,13
2019-02-21T14:31:56.867Z,12
2019-02-21T14:32:59.295Z,12
2019-02-21T14:34:01.776Z,11
2019-02-21T14:35:04.304Z,11
2019-02-21T14:36:20.370Z,11
2019-02-21T14:37:23.238Z,11
2019-02-21T14:38:30.732Z,11
2019-02-21T14:39:32.848Z,10
2019-02-21T14:40:35.794Z,10
2019-02-21T14:41:37.930Z,11
2019-02-21T14:42:40.417Z,12
2019-02-21T14:43:42.831Z,11
2019-02-21T14:44:49.270Z,11
2019-02-21T14:45:52.017Z,10
2019-02-21T14:46:55.193Z,10
2019-02-21T14:47:57.669Z,11
2019-02-21T14:48:59.825Z,12
2019-02-21T14:50:05.086Z,12
2019-02-21T14:51:07.902Z,12
2019-02-21T14:52:10.310Z,11
2019-02-21T14:53:12.424Z,11
2019-02-21T14:54:18.195Z,12
2019-02-21T14:55:20.309Z,11
2019-02-21T14:56:23.037Z,10
2019-02-21T14:57:25.155Z,11
2019-02-21T14:58:27.286Z,11
2019-02-21T14:59:29.391Z,10
2019-02-21T15:00:31.829Z,11
2019-02-21T15:01:35.026Z,14
2019-02-21T15:02:37.570Z,12
2019-02-21T15:03:39.715Z,13
2019-02-21T15:04:41.842Z,13
2019-02-21T15:05:43.970Z,14
2019-02-21T15:06:46.088Z,15